Time;durP1;ratioP1;P1;durP2;ratioP2;P2;SDS_P1;SDS_P2;PMS_P1;PMS_P2;Temp;Humidity;BMP_temperature;BMP_pressure;BME280_temperature;BME280_humidity;BME280_pressure;Samples;Min_cycle;Max_cycle;Signal;HPM_P1;HPM_P2
2022/12/24 00:01:05;;;;;;;1999.90;999.90;;;;;;;8.99;100.00;97595.34;5082498;28;20066;-78
2022/12/24 00:03:35;;;;;;;1999.90;999.90;;;;;;;8.99;100.00;97598.84;5092239;28;20536;-77
2022/12/24 00:06:08;;;;;;;1999.90;999.90;;;;;;;8.99;100.00;97592.59;5090391;28;20055;-77
2022/12/24 00:08:33;;;;;;;1999.90;999.90;;;;;;;9.05;100.00;97583.25;5070079;28;20102;-78
2022/12/24 00:10:59;;;;;;;1999.90;999.90;;;;;;;9.00;100.00;97596.94;5070892;28;20536;-77
2022/12/24 00:13:24;;;;;;;1999.90;999.90;;;;;;;9.00;100.00;97591.47;5071374;28;20043;-80
2022/12/24 00:15:49;;;;;;;1999.90;999.90;;;;;;;8.91;100.00;97604.97;5070085;28;20362;-76
2022/12/24 00:18:15;;;;;;;1999.90;999.90;;;;;;;8.86;100.00;97601.50;5087728;28;20394;-77
2022/12/24 00:20:40;;;;;;;1999.90;999.90;;;;;;;8.92;100.00;97601.16;5078566;28;20052;-75
2022/12/24 00:23:06;;;;;;;1999.90;999.90;;;;;;;8.87;100.00;97593.00;5081770;28;20046;-78
2022/12/24 00:25:31;;;;;;;1999.90;999.90;;;;;;;8.87;100.00;97584.00;5086579;28;20042;-82
2022/12/24 00:27:56;;;;;;;1999.90;999.90;;;;;;;8.88;100.00;97599.28;5074879;28;20125;-75
2022/12/24 00:30:22;;;;;;;1999.90;999.90;;;;;;;8.92;100.00;97584.78;5086657;28;20020;-75
2022/12/24 00:32:47;;;;;;;1999.90;999.90;;;;;;;8.78;100.00;97572.16;5077358;28;20115;-74
2022/12/24 00:35:12;;;;;;;1999.90;999.90;;;;;;;8.71;100.00;97567.03;5077692;28;20469;-74
2022/12/24 00:37:38;;;;;;;1999.90;999.90;;;;;;;8.80;100.00;97567.22;5085837;28;20028;-75
2022/12/24 00:40:04;;;;;;;1999.90;999.90;;;;;;;8.77;100.00;97570.53;5074239;28;20028;-76
2022/12/24 00:42:29;;;;;;;1999.90;999.90;;;;;;;8.66;100.00;97552.69;5085415;28;20013;-75
2022/12/24 00:44:54;;;;;;;1999.90;999.90;;;;;;;8.65;100.00;97540.97;5079856;28;20110;-75
2022/12/24 00:47:19;;;;;;;1999.90;999.90;;;;;;;8.70;100.00;97538.19;5090983;28;20084;-75
2022/12/24 00:49:45;;;;;;;1999.90;999.90;;;;;;;8.72;100.00;97541.41;5074703;28;20469;-75
2022/12/24 00:52:10;;;;;;;1999.90;999.90;;;;;;;8.73;100.00;97534.88;5090480;28;20039;-75
2022/12/24 00:54:35;;;;;;;1999.90;999.90;;;;;;;8.76;100.00;97547.09;5083092;28;20035;-74
2022/12/24 00:57:01;;;;;;;1999.90;999.90;;;;;;;8.84;100.00;97551.88;5080603;28;20070;-76
2022/12/24 00:59:26;;;;;;;1999.90;999.90;;;;;;;8.79;100.00;97546.50;5077219;28;20060;-78
2022/12/24 01:01:51;;;;;;;1999.90;999.90;;;;;;;8.71;100.00;97549.91;5082425;28;20107;-75
2022/12/24 01:07:00;;;;;;;1999.90;999.90;;;;;;;8.73;100.00;97559.41;5070620;28;20094;-75
2022/12/24 01:09:26;;;;;;;1999.90;999.90;;;;;;;8.68;100.00;97551.28;5069368;28;20028;-75
2022/12/24 01:11:51;;;;;;;1999.90;999.90;;;;;;;8.65;100.00;97560.03;5070343;28;20038;-74
2022/12/24 01:14:16;;;;;;;1999.90;999.90;;;;;;;8.64;100.00;97553.00;5070613;28;20035;-74
2022/12/24 01:16:42;;;;;;;1999.90;999.90;;;;;;;8.53;100.00;97546.84;5070366;28;20071;-74
2022/12/24 01:19:07;;;;;;;1999.90;999.90;;;;;;;8.49;100.00;97542.25;5072597;28;20107;-78
2022/12/24 01:21:32;;;;;;;1999.90;999.90;;;;;;;8.48;100.00;97546.09;5090163;28;20024;-78
2022/12/24 01:23:57;;;;;;;1999.90;999.90;;;;;;;8.50;100.00;97554.78;5098452;28;20031;-82
2022/12/24 01:26:23;;;;;;;1999.90;999.90;;;;;;;8.54;100.00;97567.56;5096585;28;20028;-81
2022/12/24 01:28:48;;;;;;;1999.90;999.90;;;;;;;8.56;100.00;97565.34;5097285;28;20027;-82
2022/12/24 01:31:16;;;;;;;1999.90;999.90;;;;;;;8.51;100.00;97570.88;5094771;28;20042;-87
2022/12/24 01:33:42;;;;;;;1999.90;999.90;;;;;;;8.43;100.00;97566.03;5095011;28;20477;-83
2022/12/24 01:36:08;;;;;;;1999.90;999.90;;;;;;;8.36;100.00;97557.44;5096030;28;20032;-83
2022/12/24 01:38:33;;;;;;;1999.90;999.90;;;;;;;8.41;100.00;97570.97;5076145;28;20020;-79
2022/12/24 01:43:42;;;;;;;1999.90;999.90;;;;;;;8.38;100.00;97577.00;5074465;28;20062;-76
2022/12/24 01:46:22;;;;;;;1999.90;999.90;;;;;;;8.45;100.00;97593.84;5074145;28;20041;-77
2022/12/24 01:48:55;;;;;;;1999.90;999.90;;;;;;;8.45;100.00;97593.03;5074411;28;20090;-77
2022/12/24 01:51:38;;;;;;;1999.90;999.90;;;;;;;8.54;100.00;97603.00;5079294;28;20060;-79
2022/12/24 01:54:24;;;;;;;1999.90;999.90;;;;;;;8.50;100.00;97599.22;5088961;28;20038;-77
2022/12/24 01:56:54;;;;;;;1999.90;999.90;;;;;;;8.27;100.00;97583.63;5078465;28;20474;-80
2022/12/24 01:59:21;;;;;;;1999.90;999.90;;;;;;;8.46;100.00;97600.88;5074684;28;20020;-79
2022/12/24 02:01:48;;;;;;;1999.90;999.90;;;;;;;8.33;100.00;97612.47;5074760;28;20060;-84
2022/12/24 02:04:23;;;;;;;1999.90;999.90;;;;;;;8.31;100.00;97611.16;5074501;28;20036;-79
2022/12/24 02:06:48;;;;;;;1999.90;999.90;;;;;;;8.20;100.00;97598.72;5074651;28;20045;-83
2022/12/24 02:09:14;;;;;;;1999.90;999.90;;;;;;;8.16;100.00;97595.75;5074568;28;20040;-84
2022/12/24 02:11:42;;;;;;;1999.90;999.90;;;;;;;8.10;100.00;97596.91;5075436;28;20016;-81
2022/12/24 02:14:08;;;;;;;1999.90;999.90;;;;;;;8.06;100.00;97582.22;5074788;28;20439;-81
2022/12/24 02:16:57;;;;;;;1999.90;999.90;;;;;;;8.01;100.00;97565.97;5074251;28;20038;-80
2022/12/24 02:19:50;;;;;;;1999.90;999.90;;;;;;;7.84;100.00;97584.63;5074288;28;20039;-82
2022/12/24 02:22:18;;;;;;;1999.90;999.90;;;;;;;7.89;100.00;97615.34;5073670;28;20025;-77
2022/12/24 02:25:10;;;;;;;1999.90;999.90;;;;;;;8.04;100.00;97622.56;5073840;28;20120;-79
2022/12/24 02:27:55;;;;;;;1999.90;999.90;;;;;;;7.93;100.00;97629.19;5073485;28;20029;-75
2022/12/24 02:30:28;;;;;;;1999.90;999.90;;;;;;;7.94;100.00;97612.59;5073158;28;20025;-75
2022/12/24 02:33:29;;;;;;;1999.90;999.90;;;;;;;8.03;100.00;97627.19;5071453;28;20142;-77
2022/12/24 02:36:10;;;;;;;1999.90;999.90;;;;;;;7.99;100.00;97625.31;5069262;28;20036;-75
2022/12/24 02:38:43;;;;;;;1999.90;999.90;;;;;;;8.03;100.00;97619.03;5073373;28;20444;-79
2022/12/24 02:41:15;;;;;;;1999.90;999.90;;;;;;;8.00;100.00;97627.78;5073225;28;20032;-79
2022/12/24 02:43:44;;;;;;;1999.90;999.90;;;;;;;8.12;100.00;97630.09;5073078;28;20013;-76
2022/12/24 02:46:21;;;;;;;1999.90;999.90;;;;;;;8.22;100.00;97640.91;5073776;28;20029;-78
2022/12/24 02:48:48;;;;;;;1999.90;999.90;;;;;;;8.09;100.00;97638.84;5077148;28;20123;-80
2022/12/24 02:51:14;;;;;;;1999.90;999.90;;;;;;;8.05;100.00;97630.44;5071789;28;20039;-80
2022/12/24 02:53:40;;;;;;;1999.90;999.90;;;;;;;8.03;100.00;97629.94;5073293;28;20021;-80
2022/12/24 02:56:24;;;;;;;1999.90;999.90;;;;;;;7.99;100.00;97628.88;5074196;28;20065;-75
2022/12/24 02:59:27;;;;;;;1999.90;999.90;;;;;;;8.01;100.00;97625.88;5090847;28;20028;-76
2022/12/24 03:02:01;;;;;;;1999.90;999.90;;;;;;;7.91;100.00;97609.63;5093123;28;20036;-77
2022/12/24 03:04:38;;;;;;;1999.90;999.90;;;;;;;7.80;100.00;97599.94;5093150;28;20031;-75
2022/12/24 03:07:11;;;;;;;1999.90;999.90;;;;;;;7.78;100.00;97596.66;5093018;28;20073;-76
2022/12/24 03:10:09;;;;;;;1999.90;999.90;;;;;;;7.66;100.00;97602.50;5093016;28;20412;-75
2022/12/24 03:12:40;;;;;;;1999.90;999.90;;;;;;;7.65;100.00;97605.50;5090913;28;20061;-74
2022/12/24 03:15:07;;;;;;;1999.90;999.90;;;;;;;7.54;100.00;97611.03;5091516;28;20024;-76
2022/12/24 03:17:36;;;;;;;1999.90;999.90;;;;;;;7.57;100.00;97623.25;5092729;28;20166;-75
2022/12/24 03:20:04;;;;;;;1999.90;999.90;;;;;;;7.67;100.00;97616.91;5092665;28;20019;-77
2022/12/24 03:22:31;;;;;;;1999.90;999.90;;;;;;;7.66;100.00;97604.41;5092874;28;20511;-75
2022/12/24 03:24:57;;;;;;;1999.90;999.90;;;;;;;7.64;100.00;97639.25;5083158;28;20024;-75
2022/12/24 03:27:25;;;;;;;1999.90;999.90;;;;;;;7.63;100.00;97651.25;5063869;28;20063;-77
2022/12/24 03:29:51;;;;;;;1999.90;999.90;;;;;;;7.58;100.00;97656.72;5078240;28;20029;-77
2022/12/24 03:32:23;;;;;;;1999.90;999.90;;;;;;;7.64;100.00;97667.31;5057999;28;20124;-76
2022/12/24 03:34:48;;;;;;;1999.90;999.90;;;;;;;7.68;100.00;97662.06;5051846;28;20028;-77
2022/12/24 03:37:14;;;;;;;1999.90;999.90;;;;;;;7.69;100.00;97658.28;5051902;28;20033;-77
2022/12/24 03:39:39;;;;;;;1999.90;999.90;;;;;;;7.63;100.00;97651.25;5052979;28;20029;-78
2022/12/24 03:42:04;;;;;;;1999.90;999.90;;;;;;;7.68;100.00;97662.91;5059319;28;20089;-75
2022/12/24 03:44:30;;;;;;;1999.90;999.90;;;;;;;7.69;100.00;97674.59;5049971;28;20083;-76
2022/12/24 03:46:55;;;;;;;1999.90;999.90;;;;;;;7.69;100.00;97680.03;5050949;28;20059;-75
2022/12/24 03:49:20;;;;;;;1999.90;999.90;;;;;;;7.69;100.00;97690.94;5051536;28;20028;-77
2022/12/24 03:51:46;;;;;;;1999.90;999.90;;;;;;;7.64;100.00;97685.53;5051387;28;20037;-75
2022/12/24 03:54:11;;;;;;;1999.90;999.90;;;;;;;7.63;100.00;97692.88;5051747;28;20079;-76
2022/12/24 03:56:36;;;;;;;1999.90;999.90;;;;;;;7.52;100.00;97708.47;5051563;28;20520;-76
2022/12/24 03:59:01;;;;;;;1999.90;999.90;;;;;;;7.63;100.00;97714.66;5051557;28;20032;-76
2022/12/24 04:01:27;;;;;;;1999.90;999.90;;;;;;;7.76;100.00;97715.94;5052478;28;20059;-76
2022/12/24 04:03:52;;;;;;;1999.90;999.90;;;;;;;7.71;100.00;97710.50;5051164;28;20128;-76
2022/12/24 04:06:18;;;;;;;1999.90;999.90;;;;;;;7.75;100.00;97698.78;5050945;28;20135;-76
2022/12/24 04:08:43;;;;;;;1999.90;999.90;;;;;;;7.77;100.00;97691.13;5051060;28;20025;-76
2022/12/24 04:11:12;;;;;;;1999.90;999.90;;;;;;;7.79;100.00;97690.88;5051300;28;20025;-76
2022/12/24 04:13:37;;;;;;;1999.90;999.90;;;;;;;7.78;100.00;97695.50;5051463;28;20028;-74
2022/12/24 04:16:05;;;;;;;1999.90;999.90;;;;;;;7.74;100.00;97690.88;5050883;28;20112;-75
2022/12/24 04:18:30;;;;;;;1999.90;999.90;;;;;;;7.68;100.00;97694.75;5050978;28;20049;-75
2022/12/24 04:20:56;;;;;;;1999.90;999.90;;;;;;;7.57;100.00;97695.91;5067247;28;20021;-76
2022/12/24 04:23:22;;;;;;;1999.90;999.90;;;;;;;7.41;100.00;97687.03;5070762;28;20037;-76
2022/12/24 04:25:47;;;;;;;1999.90;999.90;;;;;;;7.32;100.00;97675.94;5071116;28;20112;-75
2022/12/24 04:28:13;;;;;;;1999.90;999.90;;;;;;;7.29;100.00;97676.50;5070845;28;20031;-75
2022/12/24 04:30:39;;;;;;;1999.90;999.90;;;;;;;7.25;100.00;97680.06;5070964;28;20029;-76
2022/12/24 04:33:05;;;;;;;1999.90;999.90;;;;;;;7.20;100.00;97678.19;5070829;28;20521;-76
2022/12/24 04:35:30;;;;;;;1999.90;999.90;;;;;;;7.15;100.00;97674.66;5070575;28;20134;-75
2022/12/24 04:37:55;;;;;;;1999.90;999.90;;;;;;;7.14;100.00;97690.16;5070474;28;20027;-76
2022/12/24 04:40:21;;;;;;;1999.90;999.90;;;;;;;7.11;100.00;97701.59;5070482;28;20857;-76
2022/12/24 04:42:46;;;;;;;1999.90;999.90;;;;;;;7.13;100.00;97688.56;5070537;28;20020;-75
2022/12/24 04:45:11;;;;;;;1999.90;999.90;;;;;;;7.14;100.00;97692.09;5068984;28;20105;-76
2022/12/24 04:47:37;;;;;;;1999.90;999.90;;;;;;;7.16;100.00;97698.06;5070546;28;20060;-76
2022/12/24 04:50:02;;;;;;;1999.90;999.90;;;;;;;7.15;100.00;97702.69;5070547;28;20055;-77
2022/12/24 04:52:28;;;;;;;1999.90;999.90;;;;;;;7.20;100.00;97694.50;5070527;28;20056;-75
2022/12/24 04:54:53;;;;;;;1999.90;999.90;;;;;;;7.21;100.00;97692.59;5070975;28;20046;-76
2022/12/24 04:57:18;;;;;;;1999.90;999.90;;;;;;;7.17;100.00;97676.03;5068591;28;20028;-76
2022/12/24 04:59:44;;;;;;;1999.90;999.90;;;;;;;7.12;100.00;97681.47;5070487;28;20024;-76
2022/12/24 05:02:09;;;;;;;1999.90;999.90;;;;;;;7.10;100.00;97677.44;5070343;28;20021;-76
2022/12/24 05:04:34;;;;;;;1999.90;999.90;;;;;;;7.09;100.00;97676.59;5069777;28;20389;-75
2022/12/24 05:07:01;;;;;;;1999.90;999.90;;;;;;;7.11;100.00;97677.13;5070141;28;20079;-76
2022/12/24 05:09:26;;;;;;;1999.90;999.90;;;;;;;7.16;100.00;97685.28;5069887;28;20068;-77
2022/12/24 05:11:51;;;;;;;1999.90;999.90;;;;;;;7.16;100.00;97688.00;5069979;28;20020;-76
2022/12/24 05:14:17;;;;;;;1999.90;999.90;;;;;;;7.24;100.00;97679.25;5070333;28;20430;-74
2022/12/24 05:16:42;;;;;;;1999.90;999.90;;;;;;;7.23;100.00;97665.94;5069920;28;20027;-76
2022/12/24 05:19:08;;;;;;;1999.90;999.90;;;;;;;7.28;100.00;97669.44;5070264;28;20039;-76
2022/12/24 05:21:33;;;;;;;1999.90;999.90;;;;;;;7.26;100.00;97677.06;5070120;28;20028;-75
2022/12/24 05:26:51;;;;;;;1999.90;999.90;;;;;;;7.15;100.00;97689.09;5070645;28;20504;-74
2022/12/24 05:29:17;;;;;;;1999.90;999.90;;;;;;;7.08;100.00;97702.16;5071623;28;20063;-77
2022/12/24 05:31:43;;;;;;;1999.90;999.90;;;;;;;7.14;100.00;97717.38;5076284;28;20032;-76
2022/12/24 05:34:10;;;;;;;1999.90;999.90;;;;;;;7.10;100.00;97715.50;5070927;28;20020;-75
2022/12/24 05:36:35;;;;;;;1999.90;999.90;;;;;;;7.07;100.00;97716.88;5073374;28;20113;-76
2022/12/24 05:39:01;;;;;;;1999.90;999.90;;;;;;;7.17;100.00;97711.41;5075909;28;20016;-85
2022/12/24 05:41:27;;;;;;;1999.90;999.90;;;;;;;7.18;100.00;97706.75;5070529;28;20446;-76
2022/12/24 05:43:52;;;;;;;1999.90;999.90;;;;;;;7.22;100.00;97708.63;5070385;28;20094;-75
2022/12/24 05:46:20;;;;;;;1999.90;999.90;;;;;;;7.20;100.00;97713.56;5070400;28;20032;-76
2022/12/24 05:48:46;;;;;;;1999.90;999.90;;;;;;;7.16;100.00;97726.06;5071475;28;20025;-76
2022/12/24 05:51:13;;;;;;;1999.90;999.90;;;;;;;7.19;100.00;97720.06;5070120;28;20036;-76
2022/12/24 05:53:39;;;;;;;1999.90;999.90;;;;;;;7.17;100.00;97725.00;5070152;28;20028;-77
2022/12/24 05:56:07;;;;;;;1999.90;999.90;;;;;;;7.20;100.00;97727.16;5070590;28;20066;-77
2022/12/24 05:58:33;;;;;;;1999.90;999.90;;;;;;;7.15;100.00;97729.06;5070130;28;20020;-75
2022/12/24 06:01:00;;;;;;;1999.90;999.90;;;;;;;7.15;100.00;97738.03;5070089;28;20028;-76
2022/12/24 06:03:25;;;;;;;1999.90;999.90;;;;;;;7.16;100.00;97733.41;5070049;28;20501;-76
2022/12/24 06:06:16;;;;;;;1999.90;999.90;;;;;;;7.14;100.00;97739.13;5069972;28;20037;-76
2022/12/24 06:08:41;;;;;;;1999.90;999.90;;;;;;;7.14;100.00;97730.16;5070977;28;20043;-75
2022/12/24 06:11:10;;;;;;;1999.90;999.90;;;;;;;7.13;100.00;97726.63;5073800;28;20095;-74
2022/12/24 06:13:36;;;;;;;1999.90;999.90;;;;;;;7.10;100.00;97723.66;5072477;28;20097;-75
2022/12/24 06:16:05;;;;;;;1999.90;999.90;;;;;;;7.12;100.00;97725.00;5073492;28;20465;-73
2022/12/24 06:18:31;;;;;;;1999.90;999.90;;;;;;;7.10;100.00;97726.38;5073600;28;20115;-76
2022/12/24 06:20:57;;;;;;;1999.90;999.90;;;;;;;7.00;100.00;97727.22;5073645;28;20499;-75
2022/12/24 06:23:23;;;;;;;1999.90;999.90;;;;;;;6.94;100.00;97733.78;5073501;28;20024;-75
2022/12/24 06:25:49;;;;;;;1999.90;999.90;;;;;;;6.98;100.00;97734.84;5073925;28;20082;-76
2022/12/24 06:28:16;;;;;;;1999.90;999.90;;;;;;;6.89;100.00;97726.44;5073330;28;20111;-75
2022/12/24 06:30:46;;;;;;;1999.90;999.90;;;;;;;6.99;100.00;97731.03;5073381;28;20033;-76
2022/12/24 06:33:12;;;;;;;1999.90;999.90;;;;;;;6.97;100.00;97746.81;5073289;28;20064;-75
2022/12/24 06:35:37;;;;;;;1999.90;999.90;;;;;;;7.07;100.00;97748.69;5073242;28;20059;-76
2022/12/24 06:38:02;;;;;;;1999.90;999.90;;;;;;;7.01;100.00;97761.50;5073200;28;20075;-77
2022/12/24 06:40:28;;;;;;;1999.90;999.90;;;;;;;6.91;100.00;97761.50;5072886;28;20032;-76
2022/12/24 06:42:53;;;;;;;1999.90;999.90;;;;;;;6.89;100.00;97755.56;5073237;28;20067;-79
2022/12/24 06:45:19;;;;;;;1999.90;999.90;;;;;;;6.83;100.00;97754.72;5073410;28;20025;-76
2022/12/24 06:47:44;;;;;;;1999.90;999.90;;;;;;;6.74;100.00;97740.09;5073846;28;20028;-75
2022/12/24 06:50:09;;;;;;;1999.90;999.90;;;;;;;6.83;100.00;97743.03;5073348;28;20039;-75
2022/12/24 06:52:35;;;;;;;1999.90;999.90;;;;;;;6.82;100.00;97736.81;5073179;28;20128;-76
2022/12/24 06:55:01;;;;;;;1999.90;999.90;;;;;;;7.02;100.00;97718.81;5072245;28;20548;-76
2022/12/24 06:57:26;;;;;;;1999.90;999.90;;;;;;;7.30;100.00;97721.63;5072991;28;20103;-75
2022/12/24 06:59:52;;;;;;;1999.90;999.90;;;;;;;7.27;100.00;97724.09;5073380;28;20135;-76
2022/12/24 07:02:17;;;;;;;1999.90;999.90;;;;;;;7.13;100.00;97721.19;5073013;28;20033;-77
2022/12/24 07:04:42;;;;;;;1999.90;999.90;;;;;;;7.08;100.00;97740.22;5072546;28;20407;-75
2022/12/24 07:07:07;;;;;;;1999.90;999.90;;;;;;;6.97;100.00;97735.94;5072824;28;20115;-76
2022/12/24 07:09:33;;;;;;;1999.90;999.90;;;;;;;6.89;100.00;97747.41;5079453;28;20029;-85
2022/12/24 07:11:58;;;;;;;1999.90;999.90;;;;;;;6.92;100.00;97757.72;5085927;28;20089;-85
2022/12/24 07:14:23;;;;;;;1999.90;999.90;;;;;;;6.84;100.00;97767.25;5077482;28;20035;-84
2022/12/24 07:16:49;;;;;;;1999.90;999.90;;;;;;;6.87;100.00;97768.59;5070067;28;20043;-74
2022/12/24 07:19:14;;;;;;;1999.90;999.90;;;;;;;6.89;100.00;97785.47;5080747;28;20031;-77
2022/12/24 07:21:39;;;;;;;1999.90;999.90;;;;;;;6.93;100.00;97786.50;5075603;28;20473;-75
2022/12/24 07:24:05;;;;;;;1999.90;999.90;;;;;;;6.94;100.00;97794.41;5073309;28;20073;-86
2022/12/24 07:26:30;;;;;;;1999.90;999.90;;;;;;;6.91;100.00;97788.69;5073447;28;20409;-84
2022/12/24 07:28:56;;;;;;;1999.90;999.90;;;;;;;6.95;100.00;97790.56;5072877;28;20388;-81
2022/12/24 07:31:21;;;;;;;1999.90;999.90;;;;;;;6.85;100.00;97776.22;5072989;28;20025;-78
2022/12/24 07:33:46;;;;;;;1999.90;999.90;;;;;;;6.79;100.00;97761.84;5073022;28;20085;-79
2022/12/24 07:36:18;;;;;;;1999.90;999.90;;;;;;;6.87;100.00;97791.16;5073152;28;20028;-76
2022/12/24 07:38:44;;;;;;;1999.90;999.90;;;;;;;6.89;100.00;97790.91;5074927;28;20032;-76
2022/12/24 07:41:09;;;;;;;1999.90;999.90;;;;;;;6.91;100.00;97796.84;5075376;28;20033;-80
2022/12/24 07:43:35;;;;;;;1999.90;999.90;;;;;;;6.88;100.00;97787.34;5075276;28;20548;-83
2022/12/24 07:46:01;;;;;;;1999.90;999.90;;;;;;;6.86;100.00;97802.31;5078743;28;20074;-82
2022/12/24 07:48:27;;;;;;;1999.90;999.90;;;;;;;6.99;100.00;97823.47;5078199;28;20032;-81
2022/12/24 07:50:53;;;;;;;1999.90;999.90;;;;;;;6.90;100.00;97814.25;5074839;28;20024;-84
2022/12/24 07:53:19;;;;;;;1999.90;999.90;;;;;;;6.99;100.00;97807.16;5074219;28;20036;-81
2022/12/24 07:55:44;;;;;;;1999.90;999.90;;;;;;;7.02;100.00;97814.75;5073793;28;20111;-75
2022/12/24 07:58:10;;;;;;;1999.90;999.90;;;;;;;7.04;100.00;97828.09;5071769;28;20029;-76
2022/12/24 08:00:36;;;;;;;1999.90;999.90;;;;;;;7.13;100.00;97835.41;5071588;28;20040;-74
2022/12/24 08:03:01;;;;;;;1999.90;999.90;;;;;;;7.13;100.00;97824.53;5071530;28;20025;-76
2022/12/24 08:05:27;;;;;;;1999.90;999.90;;;;;;;7.19;100.00;97828.06;5071474;28;20070;-75
2022/12/24 08:07:53;;;;;;;1999.90;999.90;;;;;;;7.11;100.00;97826.69;5071076;28;20114;-75
2022/12/24 08:10:18;;;;;;;1999.90;999.90;;;;;;;7.16;100.00;97845.75;5071482;28;20051;-75
2022/12/24 08:12:44;;;;;;;1999.90;999.90;;;;;;;7.18;100.00;97853.59;5070068;28;20482;-76
2022/12/24 08:15:10;;;;;;;1999.90;999.90;;;;;;;7.23;100.00;97859.06;5069932;28;20032;-75
2022/12/24 08:17:36;;;;;;;1999.90;999.90;;;;;;;7.33;100.00;97862.53;5071481;28;20038;-76
2022/12/24 08:20:02;;;;;;;1999.90;999.90;;;;;;;7.36;100.00;97856.56;5071055;28;20505;-77
2022/12/24 08:22:28;;;;;;;1999.90;999.90;;;;;;;7.43;100.00;97856.25;5070759;28;20139;-79
2022/12/24 08:24:53;;;;;;;1999.90;999.90;;;;;;;7.45;100.00;97854.91;5070981;28;20103;-76
2022/12/24 08:27:18;;;;;;;1999.90;999.90;;;;;;;7.45;100.00;97864.97;5067348;28;20028;-76
2022/12/24 08:29:43;;;;;;;1999.90;999.90;;;;;;;7.46;100.00;97872.84;5068027;28;20511;-76
2022/12/24 08:32:09;;;;;;;1999.90;999.90;;;;;;;7.53;100.00;97886.16;5070264;28;20020;-76
2022/12/24 08:34:34;;;;;;;1999.90;999.90;;;;;;;7.53;100.00;97888.88;5069151;28;20476;-75
2022/12/24 08:36:59;;;;;;;1999.90;999.90;;;;;;;7.51;100.00;97886.47;5070180;28;20017;-78
2022/12/24 08:39:25;;;;;;;1999.90;999.90;;;;;;;7.52;100.00;97893.50;5070572;28;20036;-77
2022/12/24 08:41:50;;;;;;;1999.90;999.90;;;;;;;7.57;100.00;97889.16;5070456;28;20082;-75
2022/12/24 08:44:15;;;;;;;1999.90;999.90;;;;;;;7.54;100.00;97879.63;5070429;28;20070;-79
2022/12/24 08:46:41;;;;;;;1999.90;999.90;;;;;;;7.60;100.00;97891.31;5069844;28;20078;-76
2022/12/24 08:49:06;;;;;;;1999.90;999.90;;;;;;;7.82;100.00;97887.16;5071422;28;20040;-84
2022/12/24 08:51:31;;;;;;;1999.90;999.90;;;;;;;7.95;100.00;97905.59;5070526;28;20037;-76
2022/12/24 08:53:56;;;;;;;1999.90;999.90;;;;;;;7.89;100.00;97905.91;5069994;28;20480;-78
2022/12/24 08:56:22;;;;;;;1999.90;999.90;;;;;;;7.99;100.00;97908.56;5071230;28;20025;-84
2022/12/24 08:58:48;;;;;;;1999.90;999.90;;;;;;;7.86;100.00;97909.97;5073265;28;20558;-82
2022/12/24 09:01:16;;;;;;;1999.90;999.90;;;;;;;7.78;100.00;97915.19;5074482;28;20024;-84
2022/12/24 09:03:42;;;;;;;1999.90;999.90;;;;;;;7.82;100.00;97916.28;5069702;28;20114;-82
2022/12/24 09:06:08;;;;;;;1999.90;999.90;;;;;;;7.78;100.00;97913.28;5071951;28;20111;-82
2022/12/24 09:08:34;;;;;;;1999.90;999.90;;;;;;;7.93;100.00;97926.03;5085701;28;20055;-82
2022/12/24 09:11:11;;;;;;;1999.90;999.90;;;;;;;7.84;100.00;97936.69;5086752;28;20123;-89
2022/12/24 09:13:37;;;;;;;1999.90;999.90;;;;;;;7.99;100.00;97941.25;5070653;28;20025;-78
2022/12/24 09:16:03;;;;;;;1999.90;999.90;;;;;;;8.02;100.00;97941.50;5070130;28;20393;-78
2022/12/24 09:18:28;;;;;;;1999.90;999.90;;;;;;;8.16;100.00;97940.91;5070846;28;20024;-77
2022/12/24 09:21:03;;;;;;;1999.90;999.90;;;;;;;8.41;100.00;97941.63;5068999;28;20017;-79
2022/12/24 09:23:29;;;;;;;1999.90;999.90;;;;;;;8.41;100.00;97938.91;5070478;28;20033;-78
2022/12/24 09:25:55;;;;;;;1999.90;999.90;;;;;;;8.36;100.00;97927.22;5071169;28;20033;-76
2022/12/24 09:28:20;;;;;;;1999.90;999.90;;;;;;;8.31;100.00;97927.22;5071208;28;20032;-75
2022/12/24 09:31:00;;;;;;;1999.90;999.90;;;;;;;8.46;100.00;97919.78;5070230;28;20024;-78
2022/12/24 09:33:28;;;;;;;1999.90;999.90;;;;;;;8.48;100.00;97944.84;5069863;28;20025;-77
2022/12/24 09:35:53;;;;;;;1999.90;999.90;;;;;;;8.50;100.00;97948.09;5070197;28;20036;-78
2022/12/24 09:38:20;;;;;;;1999.90;999.90;;;;;;;8.58;100.00;97939.31;5069484;28;20032;-77
2022/12/24 09:40:46;;;;;;;1999.90;999.90;;;;;;;8.50;100.00;97928.22;5072168;28;20107;-76
2022/12/24 09:43:18;;;;;;;1999.90;999.90;;;;;;;8.50;100.00;97922.75;5072291;28;20013;-82
2022/12/24 09:46:21;;;;;;;1999.90;999.90;;;;;;;8.49;100.00;97929.28;5072289;28;20032;-75
2022/12/24 09:48:53;;;;;;;1999.90;999.90;;;;;;;8.53;100.00;97928.47;5063902;28;20080;-76
2022/12/24 09:51:34;;;;;;;1999.90;999.90;;;;;;;8.67;100.00;97941.47;5074892;28;20029;-77
2022/12/24 09:54:06;;;;;;;1999.90;999.90;;;;;;;8.74;100.00;97955.59;5081068;28;20067;-77
2022/12/24 09:56:39;;;;;;;1999.90;999.90;;;;;;;8.79;100.00;97971.91;5077088;28;20024;-74
2022/12/24 09:59:25;;;;;;;1999.90;999.90;;;;;;;8.93;100.00;97983.81;5070381;28;20046;-76
2022/12/24 10:01:53;;;;;;;1999.90;999.90;;;;;;;8.85;100.00;97989.88;5071141;28;20500;-76
2022/12/24 10:04:28;;;;;;;1999.90;999.90;;;;;;;8.82;100.00;97990.44;5070799;28;20432;-78
2022/12/24 10:06:53;;;;;;;;;;;;;;;8.87;100.00;98007.56;5068722;28;20048;-77
2022/12/24 10:09:31;;;;;;;1999.90;999.90;;;;;;;8.96;100.00;97994.97;5069625;28;19974;-78
2022/12/24 10:12:22;;;;;;;1999.90;999.90;;;;;;;8.94;100.00;97990.91;5070067;28;20430;-76
2022/12/24 10:15:16;;;;;;;1999.90;999.90;;;;;;;8.99;100.00;97977.22;5059864;28;20106;-76
2022/12/24 10:17:50;;;;;;;1999.90;999.90;;;;;;;9.09;100.00;97975.22;5070499;28;20066;-76
2022/12/24 10:20:49;;;;;;;1999.90;999.90;;;;;;;9.15;100.00;97986.91;5069558;28;20477;-76
2022/12/24 10:23:24;;;;;;;1999.90;999.90;;;;;;;9.28;100.00;97985.44;5092793;28;20033;-77
2022/12/24 10:26:04;;;;;;;1999.90;999.90;;;;;;;9.35;100.00;97981.28;5070329;28;20060;-77
2022/12/24 10:28:58;;;;;;;1999.90;999.90;;;;;;;9.58;100.00;97998.84;5071416;28;20269;-75
2022/12/24 10:31:35;;;;;;;1999.90;999.90;;;;;;;9.79;100.00;97981.13;5069479;28;20036;-75
2022/12/24 10:34:05;;;;;;;1999.90;999.90;;;;;;;9.74;100.00;97972.19;5077322;28;20047;-86
2022/12/24 10:36:31;;;;;;;1999.90;999.90;;;;;;;9.69;100.00;97987.50;5080364;28;20036;-84
2022/12/24 10:38:57;;;;;;;1999.90;999.90;;;;;;;9.71;100.00;97989.16;5076159;28;20025;-85
2022/12/24 10:41:25;;;;;;;1999.90;999.90;;;;;;;9.78;100.00;97967.75;5077470;28;20111;-82
2022/12/24 10:43:52;;;;;;;1999.90;999.90;;;;;;;9.89;100.00;97970.09;5080509;28;20021;-86
2022/12/24 10:46:22;;;;;;;1999.90;999.90;;;;;;;9.93;100.00;97956.69;5079892;28;20033;-82
2022/12/24 10:48:53;;;;;;;1999.90;999.90;;;;;;;9.96;100.00;97972.50;5082549;28;20063;-89
2022/12/24 10:51:44;;;;;;;1999.90;999.90;;;;;;;10.05;100.00;97974.28;5088364;28;20031;-87
2022/12/24 10:54:19;;;;;;;1999.90;999.90;;;;;;;10.00;100.00;97959.84;5081550;28;20119;-75
2022/12/24 10:56:51;;;;;;;1999.90;999.90;;;;;;;10.00;100.00;97959.84;5081270;28;20086;-78
2022/12/24 10:59:25;;;;;;;1999.90;999.90;;;;;;;9.93;100.00;97964.88;5075782;28;20056;-85
2022/12/24 11:01:54;;;;;;;1999.90;999.90;;;;;;;9.85;100.00;97969.03;5074726;28;20056;-74
2022/12/24 11:04:23;;;;;;;1999.90;999.90;;;;;;;9.93;100.00;97970.34;5072311;28;20432;-74
2022/12/24 11:07:17;;;;;;;1999.90;999.90;;;;;;;10.10;100.00;97995.25;5071904;28;20048;-75
2022/12/24 11:09:57;;;;;;;1999.90;999.90;;;;;;;10.04;100.00;98002.72;5072583;28;20537;-75